sensor_id;sensor_type;location;lat;lon;timestamp;temperature;humidity
4615;DHT22;2320;51.362;6.946;2022-12-11T00:00:37;2.20;99.90
4615;DHT22;2320;51.362;6.946;2022-12-11T00:03:03;2.20;99.90
4615;DHT22;2320;51.362;6.946;2022-12-11T00:05:28;2.30;99.90
4615;DHT22;2320;51.362;6.946;2022-12-11T00:07:53;2.40;99.90
4615;DHT22;2320;51.362;6.946;2022-12-11T00:10:19;2.30;99.90
4615;DHT22;2320;51.362;6.946;2022-12-11T00:12:44;2.30;99.90
4615;DHT22;2320;51.362;6.946;2022-12-11T00:15:10;2.30;99.90
4615;DHT22;2320;51.362;6.946;2022-12-11T00:17:35;2.30;99.90
4615;DHT22;2320;51.362;6.946;2022-12-11T00:20:01;2.30;99.90
4615;DHT22;2320;51.362;6.946;2022-12-11T00:22:28;2.30;99.90
4615;DHT22;2320;51.362;6.946;2022-12-11T00:24:53;2.40;99.90
4615;DHT22;2320;51.362;6.946;2022-12-11T00:27:19;2.40;99.90
4615;DHT22;2320;51.362;6.946;2022-12-11T00:29:44;2.40;99.90
4615;DHT22;2320;51.362;6.946;2022-12-11T00:32:10;2.50;99.90
4615;DHT22;2320;51.362;6.946;2022-12-11T00:34:35;2.50;99.90
4615;DHT22;2320;51.362;6.946;2022-12-11T00:37:01;2.50;99.90
4615;DHT22;2320;51.362;6.946;2022-12-11T00:39:26;2.60;99.90
4615;DHT22;2320;51.362;6.946;2022-12-11T00:41:51;2.60;99.90
4615;DHT22;2320;51.362;6.946;2022-12-11T00:44:17;2.30;99.90
4615;DHT22;2320;51.362;6.946;2022-12-11T00:46:42;2.50;99.90
4615;DHT22;2320;51.362;6.946;2022-12-11T00:49:08;2.50;99.90
4615;DHT22;2320;51.362;6.946;2022-12-11T00:51:33;2.30;99.90
4615;DHT22;2320;51.362;6.946;2022-12-11T00:53:59;2.40;99.90
4615;DHT22;2320;51.362;6.946;2022-12-11T00:56:24;2.40;99.90
4615;DHT22;2320;51.362;6.946;2022-12-11T00:58:50;2.30;99.90
4615;DHT22;2320;51.362;6.946;2022-12-11T01:01:17;2.40;99.90
4615;DHT22;2320;51.362;6.946;2022-12-11T01:03:43;2.30;99.90
4615;DHT22;2320;51.362;6.946;2022-12-11T01:06:12;2.30;99.90
4615;DHT22;2320;51.362;6.946;2022-12-11T01:08:38;2.40;99.90
4615;DHT22;2320;51.362;6.946;2022-12-11T01:11:04;2.30;99.90
4615;DHT22;2320;51.362;6.946;2022-12-11T01:13:30;2.30;99.90
4615;DHT22;2320;51.362;6.946;2022-12-11T01:15:56;2.20;99.90
4615;DHT22;2320;51.362;6.946;2022-12-11T01:18:22;2.30;99.90
4615;DHT22;2320;51.362;6.946;2022-12-11T01:20:48;2.20;99.90
4615;DHT22;2320;51.362;6.946;2022-12-11T01:23:13;2.30;99.90
4615;DHT22;2320;51.362;6.946;2022-12-11T01:25:39;2.30;99.90
4615;DHT22;2320;51.362;6.946;2022-12-11T01:28:05;2.30;99.90
4615;DHT22;2320;51.362;6.946;2022-12-11T01:30:30;2.30;99.90
4615;DHT22;2320;51.362;6.946;2022-12-11T01:32:56;2.50;99.90
4615;DHT22;2320;51.362;6.946;2022-12-11T01:35:22;2.50;99.90
4615;DHT22;2320;51.362;6.946;2022-12-11T01:37:47;2.50;99.90
4615;DHT22;2320;51.362;6.946;2022-12-11T01:40:14;2.50;99.90
4615;DHT22;2320;51.362;6.946;2022-12-11T01:42:40;2.30;99.90
4615;DHT22;2320;51.362;6.946;2022-12-11T01:48:08;2.40;99.90
4615;DHT22;2320;51.362;6.946;2022-12-11T01:50:32;2.40;99.90
4615;DHT22;2320;51.362;6.946;2022-12-11T01:52:58;2.40;99.90
4615;DHT22;2320;51.362;6.946;2022-12-11T01:55:24;2.40;99.90
4615;DHT22;2320;51.362;6.946;2022-12-11T01:57:50;2.40;99.90
4615;DHT22;2320;51.362;6.946;2022-12-11T02:00:16;2.40;99.90
4615;DHT22;2320;51.362;6.946;2022-12-11T02:02:43;2.50;99.90
4615;DHT22;2320;51.362;6.946;2022-12-11T02:05:08;2.40;99.90
4615;DHT22;2320;51.362;6.946;2022-12-11T02:07:36;2.30;99.90
4615;DHT22;2320;51.362;6.946;2022-12-11T02:10:03;2.40;99.90
4615;DHT22;2320;51.362;6.946;2022-12-11T02:18:22;2.30;99.90
4615;DHT22;2320;51.362;6.946;2022-12-11T02:20:35;2.40;99.90
4615;DHT22;2320;51.362;6.946;2022-12-11T02:23:13;2.30;99.90
4615;DHT22;2320;51.362;6.946;2022-12-11T02:31:02;2.40;99.90
4615;DHT22;2320;51.362;6.946;2022-12-11T02:33:32;2.50;99.90
4615;DHT22;2320;51.362;6.946;2022-12-11T02:35:58;2.40;99.90
4615;DHT22;2320;51.362;6.946;2022-12-11T02:38:29;2.50;99.90
4615;DHT22;2320;51.362;6.946;2022-12-11T02:40:55;2.50;99.90
4615;DHT22;2320;51.362;6.946;2022-12-11T02:43:21;2.40;99.90
4615;DHT22;2320;51.362;6.946;2022-12-11T02:45:47;2.30;99.90
4615;DHT22;2320;51.362;6.946;2022-12-11T02:48:14;2.30;99.90
4615;DHT22;2320;51.362;6.946;2022-12-11T02:50:41;2.40;99.90
4615;DHT22;2320;51.362;6.946;2022-12-11T02:53:08;2.40;99.90
4615;DHT22;2320;51.362;6.946;2022-12-11T02:55:35;2.20;99.90
4615;DHT22;2320;51.362;6.946;2022-12-11T02:58:01;2.10;99.90
4615;DHT22;2320;51.362;6.946;2022-12-11T03:00:28;2.00;99.90
4615;DHT22;2320;51.362;6.946;2022-12-11T03:02:53;2.20;99.90
4615;DHT22;2320;51.362;6.946;2022-12-11T03:05:19;2.10;99.90
4615;DHT22;2320;51.362;6.946;2022-12-11T03:07:45;2.30;99.90
4615;DHT22;2320;51.362;6.946;2022-12-11T03:10:11;2.20;99.90
4615;DHT22;2320;51.362;6.946;2022-12-11T03:12:39;2.40;99.90
4615;DHT22;2320;51.362;6.946;2022-12-11T03:15:07;2.30;99.90
4615;DHT22;2320;51.362;6.946;2022-12-11T03:17:34;2.30;99.90
4615;DHT22;2320;51.362;6.946;2022-12-11T03:25:17;2.30;99.90
4615;DHT22;2320;51.362;6.946;2022-12-11T03:30:11;2.40;99.90
4615;DHT22;2320;51.362;6.946;2022-12-11T03:32:43;2.40;99.90
4615;DHT22;2320;51.362;6.946;2022-12-11T03:35:16;2.40;99.90
4615;DHT22;2320;51.362;6.946;2022-12-11T03:37:43;2.30;99.90
4615;DHT22;2320;51.362;6.946;2022-12-11T03:40:10;2.40;99.90
4615;DHT22;2320;51.362;6.946;2022-12-11T03:42:36;2.40;99.90
4615;DHT22;2320;51.362;6.946;2022-12-11T03:45:03;2.40;99.90
4615;DHT22;2320;51.362;6.946;2022-12-11T03:47:29;2.40;99.90
4615;DHT22;2320;51.362;6.946;2022-12-11T03:49:55;2.40;99.90
4615;DHT22;2320;51.362;6.946;2022-12-11T03:52:22;2.50;99.90
4615;DHT22;2320;51.362;6.946;2022-12-11T03:54:48;2.50;99.90
4615;DHT22;2320;51.362;6.946;2022-12-11T03:57:15;2.50;99.90
4615;DHT22;2320;51.362;6.946;2022-12-11T03:59:41;2.40;99.90
4615;DHT22;2320;51.362;6.946;2022-12-11T04:02:07;2.40;99.90
4615;DHT22;2320;51.362;6.946;2022-12-11T04:04:38;2.30;99.90
4615;DHT22;2320;51.362;6.946;2022-12-11T04:07:03;2.30;99.90
4615;DHT22;2320;51.362;6.946;2022-12-11T04:09:29;2.40;99.90
4615;DHT22;2320;51.362;6.946;2022-12-11T04:11:54;2.40;99.90
4615;DHT22;2320;51.362;6.946;2022-12-11T04:14:20;2.40;99.90
4615;DHT22;2320;51.362;6.946;2022-12-11T04:17:04;2.40;99.90
4615;DHT22;2320;51.362;6.946;2022-12-11T04:19:30;2.30;99.90
4615;DHT22;2320;51.362;6.946;2022-12-11T04:22:15;2.40;99.90
4615;DHT22;2320;51.362;6.946;2022-12-11T04:25:00;2.30;99.90
4615;DHT22;2320;51.362;6.946;2022-12-11T04:27:25;2.20;99.90
4615;DHT22;2320;51.362;6.946;2022-12-11T04:30:12;2.50;99.90
4615;DHT22;2320;51.362;6.946;2022-12-11T04:32:37;2.30;99.90
4615;DHT22;2320;51.362;6.946;2022-12-11T04:35:03;2.40;99.90
4615;DHT22;2320;51.362;6.946;2022-12-11T04:37:28;2.40;99.90
4615;DHT22;2320;51.362;6.946;2022-12-11T04:39:54;2.50;99.90
4615;DHT22;2320;51.362;6.946;2022-12-11T04:42:19;2.40;99.90
4615;DHT22;2320;51.362;6.946;2022-12-11T04:44:45;2.40;99.90
4615;DHT22;2320;51.362;6.946;2022-12-11T04:47:10;2.40;99.90
4615;DHT22;2320;51.362;6.946;2022-12-11T04:49:36;2.40;99.90
4615;DHT22;2320;51.362;6.946;2022-12-11T04:52:01;2.50;99.90
4615;DHT22;2320;51.362;6.946;2022-12-11T04:54:30;2.60;99.90
4615;DHT22;2320;51.362;6.946;2022-12-11T04:56:55;2.50;99.90
4615;DHT22;2320;51.362;6.946;2022-12-11T04:59:21;2.40;99.90
4615;DHT22;2320;51.362;6.946;2022-12-11T05:01:46;2.50;99.90
4615;DHT22;2320;51.362;6.946;2022-12-11T05:04:12;2.50;99.90
4615;DHT22;2320;51.362;6.946;2022-12-11T05:06:38;2.60;99.90
4615;DHT22;2320;51.362;6.946;2022-12-11T05:09:03;2.50;99.90
4615;DHT22;2320;51.362;6.946;2022-12-11T05:11:29;2.50;99.90
4615;DHT22;2320;51.362;6.946;2022-12-11T05:13:54;2.50;99.90
4615;DHT22;2320;51.362;6.946;2022-12-11T05:16:20;2.60;99.90
4615;DHT22;2320;51.362;6.946;2022-12-11T05:18:45;2.60;99.90
4615;DHT22;2320;51.362;6.946;2022-12-11T05:21:12;2.60;99.90
4615;DHT22;2320;51.362;6.946;2022-12-11T05:23:38;2.50;99.90
4615;DHT22;2320;51.362;6.946;2022-12-11T05:26:05;2.50;99.90
4615;DHT22;2320;51.362;6.946;2022-12-11T05:28:32;2.50;99.90
4615;DHT22;2320;51.362;6.946;2022-12-11T05:30:59;2.50;99.90
4615;DHT22;2320;51.362;6.946;2022-12-11T05:33:25;2.50;99.90
4615;DHT22;2320;51.362;6.946;2022-12-11T05:35:50;2.50;99.90
4615;DHT22;2320;51.362;6.946;2022-12-11T05:38:16;2.50;99.90
4615;DHT22;2320;51.362;6.946;2022-12-11T05:40:42;2.50;99.90
4615;DHT22;2320;51.362;6.946;2022-12-11T05:43:07;2.50;99.90
4615;DHT22;2320;51.362;6.946;2022-12-11T05:45:33;2.40;99.90
4615;DHT22;2320;51.362;6.946;2022-12-11T05:47:58;2.50;99.90
4615;DHT22;2320;51.362;6.946;2022-12-11T05:50:24;2.60;99.90
4615;DHT22;2320;51.362;6.946;2022-12-11T05:52:49;2.60;99.90
4615;DHT22;2320;51.362;6.946;2022-12-11T05:55:15;2.50;99.90
4615;DHT22;2320;51.362;6.946;2022-12-11T05:57:40;2.50;99.90
4615;DHT22;2320;51.362;6.946;2022-12-11T06:00:06;2.50;99.90
4615;DHT22;2320;51.362;6.946;2022-12-11T06:02:33;2.60;99.90
4615;DHT22;2320;51.362;6.946;2022-12-11T06:04:59;2.60;99.90
4615;DHT22;2320;51.362;6.946;2022-12-11T06:07:24;2.60;99.90
4615;DHT22;2320;51.362;6.946;2022-12-11T06:09:50;2.60;99.90
4615;DHT22;2320;51.362;6.946;2022-12-11T06:12:15;2.50;99.90
4615;DHT22;2320;51.362;6.946;2022-12-11T06:14:41;2.30;99.90
4615;DHT22;2320;51.362;6.946;2022-12-11T06:17:06;2.40;99.90
4615;DHT22;2320;51.362;6.946;2022-12-11T06:19:31;2.50;99.90
4615;DHT22;2320;51.362;6.946;2022-12-11T06:21:57;2.50;99.90
4615;DHT22;2320;51.362;6.946;2022-12-11T06:24:22;2.50;99.90
4615;DHT22;2320;51.362;6.946;2022-12-11T06:26:48;2.50;99.90
4615;DHT22;2320;51.362;6.946;2022-12-11T06:29:13;2.60;99.90
4615;DHT22;2320;51.362;6.946;2022-12-11T06:31:39;2.60;99.90
4615;DHT22;2320;51.362;6.946;2022-12-11T06:34:04;2.70;99.90
4615;DHT22;2320;51.362;6.946;2022-12-11T06:36:30;2.70;99.90
4615;DHT22;2320;51.362;6.946;2022-12-11T06:38:55;2.50;99.90
4615;DHT22;2320;51.362;6.946;2022-12-11T06:41:21;2.50;99.90
4615;DHT22;2320;51.362;6.946;2022-12-11T06:43:46;2.50;99.90
4615;DHT22;2320;51.362;6.946;2022-12-11T06:46:13;2.50;99.90
4615;DHT22;2320;51.362;6.946;2022-12-11T06:48:38;2.50;99.90
4615;DHT22;2320;51.362;6.946;2022-12-11T06:51:07;2.60;99.90
4615;DHT22;2320;51.362;6.946;2022-12-11T06:53:32;2.50;99.90
4615;DHT22;2320;51.362;6.946;2022-12-11T06:56:04;2.50;99.90
4615;DHT22;2320;51.362;6.946;2022-12-11T06:58:30;2.40;99.90
4615;DHT22;2320;51.362;6.946;2022-12-11T07:00:55;2.50;99.90
4615;DHT22;2320;51.362;6.946;2022-12-11T07:03:21;2.50;99.90
4615;DHT22;2320;51.362;6.946;2022-12-11T07:05:46;2.60;99.90
4615;DHT22;2320;51.362;6.946;2022-12-11T07:08:12;2.70;99.90
4615;DHT22;2320;51.362;6.946;2022-12-11T07:10:37;2.80;99.90
4615;DHT22;2320;51.362;6.946;2022-12-11T07:13:03;2.60;99.90
4615;DHT22;2320;51.362;6.946;2022-12-11T07:15:28;2.60;99.90
4615;DHT22;2320;51.362;6.946;2022-12-11T07:17:54;2.60;99.90
4615;DHT22;2320;51.362;6.946;2022-12-11T07:20:19;2.50;99.90
4615;DHT22;2320;51.362;6.946;2022-12-11T07:22:45;2.40;99.90
4615;DHT22;2320;51.362;6.946;2022-12-11T07:25:10;2.40;99.90
4615;DHT22;2320;51.362;6.946;2022-12-11T07:27:35;2.60;99.90
4615;DHT22;2320;51.362;6.946;2022-12-11T07:30:01;2.60;99.90
4615;DHT22;2320;51.362;6.946;2022-12-11T07:32:26;2.60;99.90
4615;DHT22;2320;51.362;6.946;2022-12-11T07:34:53;2.60;99.90
4615;DHT22;2320;51.362;6.946;2022-12-11T07:37:18;2.70;99.90
4615;DHT22;2320;51.362;6.946;2022-12-11T07:39:44;2.60;99.90
4615;DHT22;2320;51.362;6.946;2022-12-11T07:42:09;2.60;99.90
4615;DHT22;2320;51.362;6.946;2022-12-11T07:44:34;2.60;99.90
4615;DHT22;2320;51.362;6.946;2022-12-11T07:47:00;2.50;99.90
4615;DHT22;2320;51.362;6.946;2022-12-11T07:49:25;2.40;99.90
4615;DHT22;2320;51.362;6.946;2022-12-11T07:51:51;2.50;99.90
4615;DHT22;2320;51.362;6.946;2022-12-11T07:54:16;2.50;99.90
4615;DHT22;2320;51.362;6.946;2022-12-11T07:56:42;2.60;99.90
4615;DHT22;2320;51.362;6.946;2022-12-11T07:59:08;2.70;99.90
4615;DHT22;2320;51.362;6.946;2022-12-11T08:01:34;2.60;99.90
4615;DHT22;2320;51.362;6.946;2022-12-11T08:04:01;2.60;99.90
4615;DHT22;2320;51.362;6.946;2022-12-11T08:06:32;2.70;99.90
4615;DHT22;2320;51.362;6.946;2022-12-11T08:08:58;2.60;99.90
4615;DHT22;2320;51.362;6.946;2022-12-11T08:11:24;2.50;99.90
4615;DHT22;2320;51.362;6.946;2022-12-11T08:13:50;2.50;99.90
4615;DHT22;2320;51.362;6.946;2022-12-11T08:16:15;2.60;99.90
4615;DHT22;2320;51.362;6.946;2022-12-11T08:18:42;2.50;99.90
4615;DHT22;2320;51.362;6.946;2022-12-11T08:21:14;2.50;99.90
4615;DHT22;2320;51.362;6.946;2022-12-11T08:23:40;2.50;99.90
4615;DHT22;2320;51.362;6.946;2022-12-11T08:26:07;2.60;99.90
4615;DHT22;2320;51.362;6.946;2022-12-11T08:28:33;2.50;99.90
4615;DHT22;2320;51.362;6.946;2022-12-11T08:30:59;2.50;99.90
4615;DHT22;2320;51.362;6.946;2022-12-11T08:33:24;2.40;99.90
4615;DHT22;2320;51.362;6.946;2022-12-11T08:35:50;2.40;99.90
4615;DHT22;2320;51.362;6.946;2022-12-11T08:38:15;2.60;99.90
4615;DHT22;2320;51.362;6.946;2022-12-11T08:40:41;2.50;99.90
4615;DHT22;2320;51.362;6.946;2022-12-11T08:43:06;2.50;99.90
4615;DHT22;2320;51.362;6.946;2022-12-11T08:45:32;2.40;99.90
4615;DHT22;2320;51.362;6.946;2022-12-11T08:47:58;2.50;99.90
4615;DHT22;2320;51.362;6.946;2022-12-11T08:50:23;2.70;99.90
4615;DHT22;2320;51.362;6.946;2022-12-11T08:52:50;2.60;99.90
4615;DHT22;2320;51.362;6.946;2022-12-11T08:55:15;2.80;99.90
4615;DHT22;2320;51.362;6.946;2022-12-11T08:57:40;2.90;99.90
4615;DHT22;2320;51.362;6.946;2022-12-11T09:00:07;2.70;99.90
4615;DHT22;2320;51.362;6.946;2022-12-11T09:02:33;2.80;99.90
4615;DHT22;2320;51.362;6.946;2022-12-11T09:04:59;2.90;99.90
4615;DHT22;2320;51.362;6.946;2022-12-11T09:07:24;2.70;99.90
4615;DHT22;2320;51.362;6.946;2022-12-11T09:09:52;2.70;99.90
4615;DHT22;2320;51.362;6.946;2022-12-11T09:12:18;2.70;99.90
4615;DHT22;2320;51.362;6.946;2022-12-11T09:14:43;2.60;99.90
4615;DHT22;2320;51.362;6.946;2022-12-11T09:17:09;2.80;99.90
4615;DHT22;2320;51.362;6.946;2022-12-11T09:19:34;2.90;99.90
4615;DHT22;2320;51.362;6.946;2022-12-11T09:22:00;3.00;99.90
4615;DHT22;2320;51.362;6.946;2022-12-11T09:24:25;3.10;99.90
4615;DHT22;2320;51.362;6.946;2022-12-11T09:26:51;2.80;99.90
4615;DHT22;2320;51.362;6.946;2022-12-11T09:29:16;3.00;99.90
4615;DHT22;2320;51.362;6.946;2022-12-11T09:31:42;2.90;99.90
4615;DHT22;2320;51.362;6.946;2022-12-11T09:34:10;3.10;99.90
4615;DHT22;2320;51.362;6.946;2022-12-11T09:36:37;3.00;99.90
4615;DHT22;2320;51.362;6.946;2022-12-11T09:39:03;3.10;99.90
4615;DHT22;2320;51.362;6.946;2022-12-11T09:44:29;3.10;99.90
4615;DHT22;2320;51.362;6.946;2022-12-11T09:46:56;3.10;99.90
4615;DHT22;2320;51.362;6.946;2022-12-11T09:51:57;3.20;99.90
4615;DHT22;2320;51.362;6.946;2022-12-11T09:54:23;3.30;99.90
4615;DHT22;2320;51.362;6.946;2022-12-11T09:57:01;3.20;99.90
4615;DHT22;2320;51.362;6.946;2022-12-11T09:59:31;3.30;99.90
4615;DHT22;2320;51.362;6.946;2022-12-11T10:05:00;3.10;99.90
4615;DHT22;2320;51.362;6.946;2022-12-11T10:07:24;3.20;99.90
4615;DHT22;2320;51.362;6.946;2022-12-11T10:09:58;3.30;99.90
4615;DHT22;2320;51.362;6.946;2022-12-11T10:15:04;3.30;99.90
4615;DHT22;2320;51.362;6.946;2022-12-11T10:17:35;3.30;99.90
4615;DHT22;2320;51.362;6.946;2022-12-11T10:22:47;3.20;99.90
4615;DHT22;2320;51.362;6.946;2022-12-11T10:27:49;3.30;99.90
4615;DHT22;2320;51.362;6.946;2022-12-11T10:30:22;3.30;99.90
4615;DHT22;2320;51.362;6.946;2022-12-11T10:35:27;3.30;99.90
4615;DHT22;2320;51.362;6.946;2022-12-11T10:37:55;3.30;99.90
4615;DHT22;2320;51.362;6.946;2022-12-11T10:40:24;3.20;99.90
4615;DHT22;2320;51.362;6.946;2022-12-11T10:42:51;3.20;99.90
4615;DHT22;2320;51.362;6.946;2022-12-11T10:45:16;3.10;99.90
4615;DHT22;2320;51.362;6.946;2022-12-11T10:47:42;3.10;99.90
4615;DHT22;2320;51.362;6.946;2022-12-11T10:50:20;3.20;99.90
4615;DHT22;2320;51.362;6.946;2022-12-11T10:52:46;3.30;99.90
4615;DHT22;2320;51.362;6.946;2022-12-11T10:55:19;3.20;99.90
4615;DHT22;2320;51.362;6.946;2022-12-11T10:57:45;3.20;99.90
4615;DHT22;2320;51.362;6.946;2022-12-11T11:00:25;3.40;99.90
4615;DHT22;2320;51.362;6.946;2022-12-11T11:02:53;3.30;99.90
4615;DHT22;2320;51.362;6.946;2022-12-11T11:05:32;3.50;99.90
4615;DHT22;2320;51.362;6.946;2022-12-11T11:08:11;3.50;99.90
4615;DHT22;2320;51.362;6.946;2022-12-11T11:10:48;3.50;99.90
4615;DHT22;2320;51.362;6.946;2022-12-11T11:13:13;3.50;99.90
4615;DHT22;2320;51.362;6.946;2022-12-11T11:15:39;3.40;99.90
4615;DHT22;2320;51.362;6.946;2022-12-11T11:18:22;3.60;99.90
4615;DHT22;2320;51.362;6.946;2022-12-11T11:20:50;3.50;99.90
4615;DHT22;2320;51.362;6.946;2022-12-11T11:23:16;3.50;99.90
4615;DHT22;2320;51.362;6.946;2022-12-11T11:25:50;3.50;99.90
4615;DHT22;2320;51.362;6.946;2022-12-11T11:28:17;3.60;99.90
4615;DHT22;2320;51.362;6.946;2022-12-11T11:30:53;3.60;99.90
4615;DHT22;2320;51.362;6.946;2022-12-11T11:33:21;3.70;99.90
4615;DHT22;2320;51.362;6.946;2022-12-11T11:36:20;3.50;99.90
4615;DHT22;2320;51.362;6.946;2022-12-11T11:39:26;3.40;99.90
4615;DHT22;2320;51.362;6.946;2022-12-11T11:41:30;3.40;99.90
4615;DHT22;2320;51.362;6.946;2022-12-11T11:43:59;3.60;99.90
4615;DHT22;2320;51.362;6.946;2022-12-11T11:46:31;3.60;99.90
4615;DHT22;2320;51.362;6.946;2022-12-11T11:51:45;3.70;99.90
4615;DHT22;2320;51.362;6.946;2022-12-11T11:54:24;3.70;99.90
4615;DHT22;2320;51.362;6.946;2022-12-11T11:56:52;3.70;99.90
4615;DHT22;2320;51.362;6.946;2022-12-11T11:59:21;3.80;99.90
4615;DHT22;2320;51.362;6.946;2022-12-11T12:01:50;3.90;99.90
4615;DHT22;2320;51.362;6.946;2022-12-11T12:04:15;3.90;99.90
4615;DHT22;2320;51.362;6.946;2022-12-11T12:09:18;3.80;99.90
4615;DHT22;2320;51.362;6.946;2022-12-11T12:11:51;3.80;99.90
4615;DHT22;2320;51.362;6.946;2022-12-11T12:17:08;3.70;99.90
4615;DHT22;2320;51.362;6.946;2022-12-11T12:19:49;3.50;99.90
4615;DHT22;2320;51.362;6.946;2022-12-11T12:24:50;3.40;99.90
4615;DHT22;2320;51.362;6.946;2022-12-11T12:27:23;3.30;99.90
4615;DHT22;2320;51.362;6.946;2022-12-11T12:29:55;3.10;99.90
4615;DHT22;2320;51.362;6.946;2022-12-11T12:35:08;3.20;99.90
4615;DHT22;2320;51.362;6.946;2022-12-11T12:38:02;3.20;99.90
4615;DHT22;2320;51.362;6.946;2022-12-11T12:43:25;3.10;99.90
4615;DHT22;2320;51.362;6.946;2022-12-11T12:46:19;3.30;99.90
4615;DHT22;2320;51.362;6.946;2022-12-11T12:48:41;3.40;99.90
4615;DHT22;2320;51.362;6.946;2022-12-11T12:51:08;3.50;99.90
4615;DHT22;2320;51.362;6.946;2022-12-11T12:53:37;3.80;99.90
4615;DHT22;2320;51.362;6.946;2022-12-11T12:56:03;3.80;99.90
4615;DHT22;2320;51.362;6.946;2022-12-11T13:01:08;3.80;99.90
4615;DHT22;2320;51.362;6.946;2022-12-11T13:06:38;3.60;99.90
4615;DHT22;2320;51.362;6.946;2022-12-11T13:11:42;3.80;99.90
4615;DHT22;2320;51.362;6.946;2022-12-11T13:16:40;3.70;99.90
4615;DHT22;2320;51.362;6.946;2022-12-11T13:19:24;3.80;99.90
4615;DHT22;2320;51.362;6.946;2022-12-11T13:21:55;3.90;99.90
4615;DHT22;2320;51.362;6.946;2022-12-11T13:26:46;3.90;99.90
4615;DHT22;2320;51.362;6.946;2022-12-11T13:29:32;3.80;99.90
4615;DHT22;2320;51.362;6.946;2022-12-11T13:34:28;3.70;99.90
4615;DHT22;2320;51.362;6.946;2022-12-11T13:36:55;3.80;99.90
4615;DHT22;2320;51.362;6.946;2022-12-11T13:39:23;3.90;99.90
4615;DHT22;2320;51.362;6.946;2022-12-11T13:41:50;3.80;99.90
4615;DHT22;2320;51.362;6.946;2022-12-11T13:44:18;3.80;99.90
4615;DHT22;2320;51.362;6.946;2022-12-11T13:46:45;3.80;99.90
4615;DHT22;2320;51.362;6.946;2022-12-11T13:49:18;3.70;99.90
4615;DHT22;2320;51.362;6.946;2022-12-11T13:51:50;3.90;99.90
4615;DHT22;2320;51.362;6.946;2022-12-11T13:54:17;3.80;99.90
4615;DHT22;2320;51.362;6.946;2022-12-11T13:56:56;3.80;99.90
4615;DHT22;2320;51.362;6.946;2022-12-11T13:59:33;3.90;99.90
4615;DHT22;2320;51.362;6.946;2022-12-11T14:02:00;3.70;99.90
4615;DHT22;2320;51.362;6.946;2022-12-11T14:04:27;3.90;99.90
4615;DHT22;2320;51.362;6.946;2022-12-11T14:06:53;3.70;99.90
4615;DHT22;2320;51.362;6.946;2022-12-11T14:09:20;3.70;99.90
4615;DHT22;2320;51.362;6.946;2022-12-11T14:11:46;3.70;99.90
4615;DHT22;2320;51.362;6.946;2022-12-11T14:16:57;3.60;99.90
4615;DHT22;2320;51.362;6.946;2022-12-11T14:19:22;3.50;99.90
4615;DHT22;2320;51.362;6.946;2022-12-11T14:21:59;3.80;99.90
4615;DHT22;2320;51.362;6.946;2022-12-11T14:24:25;3.60;99.90
4615;DHT22;2320;51.362;6.946;2022-12-11T14:26:51;3.60;99.90
4615;DHT22;2320;51.362;6.946;2022-12-11T14:29:30;3.80;99.90
4615;DHT22;2320;51.362;6.946;2022-12-11T14:31:56;3.70;99.90
4615;DHT22;2320;51.362;6.946;2022-12-11T14:34:25;3.70;99.90
4615;DHT22;2320;51.362;6.946;2022-12-11T14:36:52;3.70;99.90
4615;DHT22;2320;51.362;6.946;2022-12-11T14:39:21;3.50;99.90
4615;DHT22;2320;51.362;6.946;2022-12-11T14:41:49;3.50;99.90
4615;DHT22;2320;51.362;6.946;2022-12-11T14:44:17;3.50;99.90
4615;DHT22;2320;51.362;6.946;2022-12-11T14:46:45;3.40;99.90
4615;DHT22;2320;51.362;6.946;2022-12-11T14:49:16;3.30;99.90
4615;DHT22;2320;51.362;6.946;2022-12-11T14:51:45;3.50;99.90
4615;DHT22;2320;51.362;6.946;2022-12-11T14:54:16;3.40;99.90
4615;DHT22;2320;51.362;6.946;2022-12-11T14:56:43;3.40;99.90
4615;DHT22;2320;51.362;6.946;2022-12-11T14:59:15;3.40;99.90
4615;DHT22;2320;51.362;6.946;2022-12-11T15:01:43;3.40;99.90
4615;DHT22;2320;51.362;6.946;2022-12-11T15:04:21;3.30;99.90
4615;DHT22;2320;51.362;6.946;2022-12-11T15:06:48;3.30;99.90
4615;DHT22;2320;51.362;6.946;2022-12-11T15:11:40;3.10;99.90
4615;DHT22;2320;51.362;6.946;2022-12-11T15:14:08;3.20;99.90
4615;DHT22;2320;51.362;6.946;2022-12-11T15:16:36;3.30;99.90
4615;DHT22;2320;51.362;6.946;2022-12-11T15:19:02;3.40;99.90
4615;DHT22;2320;51.362;6.946;2022-12-11T15:21:32;3.40;99.90
4615;DHT22;2320;51.362;6.946;2022-12-11T15:23:59;3.30;99.90
4615;DHT22;2320;51.362;6.946;2022-12-11T15:28:58;3.30;99.90
4615;DHT22;2320;51.362;6.946;2022-12-11T15:31:31;3.30;99.90
4615;DHT22;2320;51.362;6.946;2022-12-11T15:33:57;3.30;99.90
4615;DHT22;2320;51.362;6.946;2022-12-11T15:36:24;3.20;99.90
4615;DHT22;2320;51.362;6.946;2022-12-11T15:38:50;3.20;99.90
4615;DHT22;2320;51.362;6.946;2022-12-11T15:41:17;3.40;99.90
4615;DHT22;2320;51.362;6.946;2022-12-11T15:43:45;3.30;99.90
4615;DHT22;2320;51.362;6.946;2022-12-11T15:46:11;3.30;99.90
4615;DHT22;2320;51.362;6.946;2022-12-11T15:48:37;3.20;99.90
4615;DHT22;2320;51.362;6.946;2022-12-11T15:51:02;3.20;99.90
4615;DHT22;2320;51.362;6.946;2022-12-11T15:53:28;3.10;99.90
4615;DHT22;2320;51.362;6.946;2022-12-11T15:55:53;3.10;99.90
4615;DHT22;2320;51.362;6.946;2022-12-11T15:58:20;3.10;99.90
4615;DHT22;2320;51.362;6.946;2022-12-11T16:00:46;3.20;99.90
4615;DHT22;2320;51.362;6.946;2022-12-11T16:03:12;3.10;99.90
4615;DHT22;2320;51.362;6.946;2022-12-11T16:05:38;2.90;99.90
4615;DHT22;2320;51.362;6.946;2022-12-11T16:08:04;3.00;99.90
4615;DHT22;2320;51.362;6.946;2022-12-11T16:10:29;3.00;99.90
4615;DHT22;2320;51.362;6.946;2022-12-11T16:12:55;3.00;99.90
4615;DHT22;2320;51.362;6.946;2022-12-11T16:15:26;3.10;99.90
4615;DHT22;2320;51.362;6.946;2022-12-11T16:18:01;3.10;99.90
4615;DHT22;2320;51.362;6.946;2022-12-11T16:20:28;3.00;99.90
4615;DHT22;2320;51.362;6.946;2022-12-11T16:22:55;2.90;99.90
4615;DHT22;2320;51.362;6.946;2022-12-11T16:25:20;3.00;99.90
4615;DHT22;2320;51.362;6.946;2022-12-11T16:27:46;3.00;99.90
4615;DHT22;2320;51.362;6.946;2022-12-11T16:30:11;2.90;99.90
4615;DHT22;2320;51.362;6.946;2022-12-11T16:32:37;2.90;99.90
4615;DHT22;2320;51.362;6.946;2022-12-11T16:35:03;2.90;99.90
4615;DHT22;2320;51.362;6.946;2022-12-11T16:37:28;2.90;99.90
4615;DHT22;2320;51.362;6.946;2022-12-11T16:39:54;3.00;99.90
4615;DHT22;2320;51.362;6.946;2022-12-11T16:42:19;3.00;99.90
4615;DHT22;2320;51.362;6.946;2022-12-11T16:44:45;2.90;99.90
4615;DHT22;2320;51.362;6.946;2022-12-11T16:47:10;3.20;99.90
4615;DHT22;2320;51.362;6.946;2022-12-11T16:49:35;3.20;99.90
4615;DHT22;2320;51.362;6.946;2022-12-11T16:52:01;3.00;99.90
4615;DHT22;2320;51.362;6.946;2022-12-11T16:54:26;2.80;99.90
4615;DHT22;2320;51.362;6.946;2022-12-11T16:56:52;2.80;99.90
4615;DHT22;2320;51.362;6.946;2022-12-11T16:59:17;2.80;99.90
4615;DHT22;2320;51.362;6.946;2022-12-11T17:01:43;3.00;99.90
4615;DHT22;2320;51.362;6.946;2022-12-11T17:04:09;2.90;99.90
4615;DHT22;2320;51.362;6.946;2022-12-11T17:06:34;2.90;99.90
4615;DHT22;2320;51.362;6.946;2022-12-11T17:09:00;2.90;99.90
4615;DHT22;2320;51.362;6.946;2022-12-11T17:11:25;3.00;99.90
4615;DHT22;2320;51.362;6.946;2022-12-11T17:13:52;3.10;99.90
4615;DHT22;2320;51.362;6.946;2022-12-11T17:16:18;3.00;99.90
4615;DHT22;2320;51.362;6.946;2022-12-11T17:18:43;2.90;99.90
4615;DHT22;2320;51.362;6.946;2022-12-11T17:21:10;2.90;99.90
4615;DHT22;2320;51.362;6.946;2022-12-11T17:23:35;3.10;99.90
4615;DHT22;2320;51.362;6.946;2022-12-11T17:26:01;3.10;99.90
4615;DHT22;2320;51.362;6.946;2022-12-11T17:28:27;2.90;99.90
4615;DHT22;2320;51.362;6.946;2022-12-11T17:30:53;3.00;99.90
4615;DHT22;2320;51.362;6.946;2022-12-11T17:33:18;3.00;99.90
4615;DHT22;2320;51.362;6.946;2022-12-11T17:35:44;2.90;99.90
4615;DHT22;2320;51.362;6.946;2022-12-11T17:38:09;2.90;99.90